createdAt,value
2022-11-15T00:00:17.047Z,0.00
2022-11-15T00:05:16.978Z,0.00
2022-11-15T00:10:16.920Z,0.00
2022-11-15T00:15:16.871Z,0.00
2022-11-15T00:20:16.863Z,0.00
2022-11-15T00:25:16.773Z,0.00
2022-11-15T05:00:29.662Z,0.00
2022-11-15T05:05:29.598Z,0.00
2022-11-15T05:10:29.563Z,0.00
2022-11-15T05:15:36.510Z,0.00
2022-11-15T05:20:29.420Z,0.00
2022-11-15T05:25:29.391Z,0.00
2022-11-15T05:30:29.314Z,0.00
2022-11-15T05:35:29.265Z,0.00
2022-11-15T05:40:29.192Z,0.00
2022-11-15T05:45:29.162Z,0.00
2022-11-15T05:50:29.110Z,0.00
2022-11-15T05:55:29.022Z,0.00
2022-11-15T06:00:28.993Z,0.00
2022-11-15T06:05:28.956Z,0.00
2022-11-15T06:10:28.870Z,0.00
2022-11-15T06:15:28.821Z,0.00
2022-11-15T06:20:28.766Z,0.00
2022-11-15T06:25:28.715Z,8.00
2022-11-15T06:30:28.657Z,20.00
2022-11-15T06:35:28.628Z,44.00
2022-11-15T06:40:28.536Z,96.00
2022-11-15T06:45:28.515Z,168.00
2022-11-15T06:50:28.445Z,236.00
2022-11-15T06:55:28.377Z,348.00
2022-11-15T07:00:28.329Z,392.00
2022-11-15T07:05:28.300Z,464.00
2022-11-15T07:10:28.235Z,376.00
2022-11-15T07:15:28.166Z,496.00
2022-11-15T07:20:28.182Z,616.00
2022-11-15T07:25:28.062Z,848.00
2022-11-15T07:30:28.059Z,1108.00
2022-11-15T07:35:27.954Z,1368.00
2022-11-15T07:40:27.940Z,1524.00
2022-11-15T07:45:27.858Z,1652.00
2022-11-15T07:50:27.842Z,2212.00
2022-11-15T07:55:27.719Z,2344.00
2022-11-15T08:00:27.674Z,2680.00
2022-11-15T08:05:27.654Z,2568.00
2022-11-15T08:10:27.552Z,2528.00
2022-11-15T08:15:27.557Z,2340.00
2022-11-15T08:20:27.465Z,2388.00
2022-11-15T08:25:27.401Z,2656.00
2022-11-15T08:30:27.349Z,2676.00
2022-11-15T08:35:29.242Z,2796.00
2022-11-15T08:40:27.223Z,2964.00
2022-11-15T08:45:27.196Z,3356.00
2022-11-15T08:50:27.126Z,3624.00
2022-11-15T08:55:27.057Z,3980.00
2022-11-15T09:00:27.013Z,3764.00
2022-11-15T09:05:26.977Z,4312.00
2022-11-15T09:10:26.888Z,4428.00
2022-11-15T09:15:26.859Z,4384.00
2022-11-15T09:20:26.793Z,4364.00
2022-11-15T09:25:26.741Z,4584.00
2022-11-15T09:30:26.683Z,4836.00
2022-11-15T09:35:26.648Z,4940.00
2022-11-15T09:40:26.555Z,5008.00
2022-11-15T09:45:26.556Z,5156.00
2022-11-15T09:50:26.461Z,5092.00
2022-11-15T09:55:26.388Z,4888.00
2022-11-15T10:05:27.313Z,4736.00
2022-11-15T10:10:26.219Z,4660.00
2022-11-15T10:15:26.178Z,4852.00
2022-11-15T10:20:26.135Z,5116.00
2022-11-15T10:25:26.084Z,5376.00
2022-11-15T10:30:26.010Z,4868.00
2022-11-15T10:35:25.959Z,5056.00
2022-11-15T10:40:25.889Z,5216.00
2022-11-15T10:45:25.869Z,5136.00
2022-11-15T10:50:25.804Z,5288.00
2022-11-15T10:55:25.729Z,5212.00
2022-11-15T11:00:25.683Z,4928.00
2022-11-15T11:05:25.653Z,4924.00
2022-11-15T11:16:39.143Z,5168.00
2022-11-15T11:21:40.100Z,4936.00
2022-11-15T11:26:37.013Z,4880.00
2022-11-15T11:31:36.982Z,3408.00
2022-11-15T11:36:36.876Z,4756.00
2022-11-15T11:41:36.839Z,4236.00
2022-11-15T11:46:36.768Z,4264.00
2022-11-15T11:51:36.785Z,4224.00
2022-11-15T11:56:36.659Z,3760.00
2022-11-15T12:01:36.709Z,3412.00
2022-11-15T12:06:36.550Z,3608.00
2022-11-15T12:11:36.491Z,3716.00
2022-11-15T12:16:36.441Z,3920.00
2022-11-15T12:21:36.401Z,4284.00
2022-11-15T12:26:36.325Z,4588.00
2022-11-15T12:31:36.334Z,3644.00
2022-11-15T12:36:36.223Z,3656.00
2022-11-15T12:41:36.180Z,3396.00
2022-11-15T12:46:36.105Z,3204.00
2022-11-15T12:51:36.156Z,3200.00
2022-11-15T12:56:35.993Z,3364.00
2022-11-15T13:01:36.039Z,5424.00
2022-11-15T13:06:35.886Z,4856.00
2022-11-15T13:11:35.828Z,4364.00
2022-11-15T13:16:35.771Z,3012.00
2022-11-15T13:21:35.742Z,2800.00
2022-11-15T13:26:35.674Z,2624.00
2022-11-15T13:31:35.605Z,2616.00
2022-11-15T13:36:35.579Z,2416.00
2022-11-15T13:41:35.518Z,2200.00
2022-11-15T13:46:35.443Z,2048.00
2022-11-15T13:51:35.400Z,2152.00
2022-11-15T13:56:35.330Z,1744.00
2022-11-15T14:01:35.372Z,1588.00
2022-11-15T14:06:35.221Z,1508.00
2022-11-15T14:11:35.168Z,1424.00
2022-11-15T14:16:35.115Z,1404.00
2022-11-15T14:21:35.104Z,1384.00
2022-11-15T14:26:35.002Z,1344.00
2022-11-15T14:31:36.160Z,1132.00
2022-11-15T14:36:34.893Z,1040.00
2022-11-15T14:41:34.862Z,908.00
2022-11-15T14:46:34.791Z,744.00
2022-11-15T14:51:34.724Z,640.00
2022-11-15T14:56:34.673Z,520.00
2022-11-15T15:01:34.632Z,464.00
2022-11-15T15:06:34.621Z,420.00
2022-11-15T15:11:34.499Z,356.00
2022-11-15T15:16:34.450Z,308.00
2022-11-15T15:21:37.370Z,264.00
2022-11-15T15:26:34.341Z,232.00
2022-11-15T15:31:34.282Z,212.00
2022-11-15T15:36:34.226Z,168.00
2022-11-15T15:41:34.190Z,108.00
2022-11-15T15:46:34.118Z,72.00
2022-11-15T15:51:34.085Z,44.00
2022-11-15T15:56:34.015Z,24.00
2022-11-15T16:01:34.016Z,12.00
2022-11-15T16:06:33.898Z,4.00
2022-11-15T16:11:33.848Z,4.00
2022-11-15T16:16:33.793Z,0.00
2022-11-15T16:21:33.757Z,0.00
2022-11-15T16:26:33.683Z,0.00
2022-11-15T16:31:33.646Z,0.00
2022-11-15T16:36:33.589Z,0.00
2022-11-15T16:41:33.543Z,0.00
2022-11-15T16:46:33.469Z,0.00
2022-11-15T16:51:33.422Z,0.00
2022-11-15T16:56:33.346Z,0.00
2022-11-15T17:01:33.479Z,0.00
2022-11-15T17:06:33.757Z,0.00
2022-11-15T17:11:33.180Z,0.00
2022-11-15T17:16:40.198Z,0.00
2022-11-15T17:21:33.906Z,0.00
2022-11-15T17:26:37.585Z,0.00
2022-11-15T17:31:33.975Z,0.00
2022-11-15T17:36:32.939Z,0.00
2022-11-15T17:41:32.869Z,0.00
2022-11-15T17:46:32.836Z,0.00
2022-11-15T17:51:32.748Z,0.00
2022-11-15T17:56:32.724Z,0.00
2022-11-15T18:01:32.782Z,0.00
2022-11-15T18:06:32.582Z,0.00
2022-11-15T18:11:32.549Z,0.00
2022-11-15T18:16:32.597Z,0.00
2022-11-15T18:21:32.421Z,0.00
2022-11-15T18:26:32.383Z,0.00
2022-11-15T18:31:32.918Z,0.00
2022-11-15T18:36:32.297Z,0.00
2022-11-15T18:41:32.215Z,0.00
2022-11-15T18:46:32.168Z,0.00
2022-11-15T18:51:32.108Z,0.00
2022-11-15T18:56:32.082Z,0.00
2022-11-15T19:01:32.078Z,0.00
2022-11-15T19:06:31.949Z,0.00
2022-11-15T19:11:31.891Z,0.00
2022-11-15T19:16:31.866Z,0.00
2022-11-15T19:21:31.785Z,0.00
2022-11-15T19:26:31.733Z,0.00
2022-11-15T19:31:31.712Z,0.00
2022-11-15T19:36:31.675Z,0.00
2022-11-15T19:41:31.570Z,0.00
2022-11-15T19:46:31.545Z,0.00
2022-11-15T19:51:31.509Z,0.00
2022-11-15T19:56:31.459Z,0.00
2022-11-15T20:01:31.509Z,0.00
2022-11-15T20:06:31.316Z,0.00
2022-11-15T20:11:31.259Z,0.00
2022-11-15T20:16:31.199Z,0.00
2022-11-15T20:21:31.138Z,0.00
2022-11-15T20:26:31.103Z,0.00
2022-11-15T20:31:31.023Z,0.00
2022-11-15T20:36:31.000Z,0.00
2022-11-15T20:41:30.929Z,0.00
2022-11-15T20:46:30.859Z,0.00
2022-11-15T20:51:30.818Z,0.00
2022-11-15T20:56:30.791Z,0.00
2022-11-15T21:01:30.858Z,0.00
2022-11-15T21:06:30.657Z,0.00
2022-11-15T21:11:30.608Z,0.00
2022-11-15T21:16:30.559Z,0.00
2022-11-15T21:21:30.499Z,0.00
2022-11-15T21:26:30.461Z,0.00
2022-11-15T21:31:30.378Z,0.00
2022-11-15T21:36:30.356Z,0.00
2022-11-15T21:41:30.288Z,0.00
2022-11-15T21:46:30.214Z,0.00
2022-11-15T21:51:30.190Z,0.00
2022-11-15T21:56:30.150Z,0.00
2022-11-15T22:01:30.124Z,0.00
2022-11-15T22:06:30.011Z,0.00
2022-11-15T22:11:29.956Z,0.00
2022-11-15T22:16:29.914Z,0.00
2022-11-15T22:21:29.853Z,0.00
2022-11-15T22:26:29.801Z,0.00
2022-11-15T22:31:29.736Z,0.00
2022-11-15T22:36:42.513Z,0.00
2022-11-15T22:41:30.644Z,0.00
2022-11-15T22:46:29.572Z,0.00
2022-11-15T22:51:29.532Z,0.00
2022-11-15T22:56:29.505Z,0.00
2022-11-15T23:01:29.436Z,0.00
2022-11-15T23:06:29.356Z,0.00
2022-11-15T23:11:29.318Z,0.00
2022-11-15T23:16:36.321Z,0.00
2022-11-15T23:21:29.199Z,0.00
2022-11-15T23:26:29.152Z,0.00
2022-11-15T23:31:29.119Z,0.00
2022-11-15T23:36:29.054Z,0.00
2022-11-15T23:41:28.998Z,0.00
2022-11-15T23:46:28.955Z,0.00
2022-11-15T23:51:28.877Z,0.00
2022-11-15T23:56:28.859Z,0.00
